sensor_id;sensor_type;location;lat;lon;timestamp;pressure;altitude;pressure_sealevel;temperature;humidity
45071;BME280;30836;48.906;9.140;2023-06-19T00:00:22;981.30;;;31.50;27.01
45071;BME280;30836;48.906;9.140;2023-06-19T00:01:23;981.30;;;31.36;27.13
45071;BME280;30836;48.906;9.140;2023-06-19T00:02:23;981.28;;;31.24;27.27
45071;BME280;30836;48.906;9.140;2023-06-19T00:03:23;981.28;;;31.14;27.37
45071;BME280;30836;48.906;9.140;2023-06-19T00:04:24;981.30;;;31.06;27.48
45071;BME280;30836;48.906;9.140;2023-06-19T00:05:24;981.28;;;31.00;27.43
45071;BME280;30836;48.906;9.140;2023-06-19T00:06:25;981.28;;;30.94;27.47
45071;BME280;30836;48.906;9.140;2023-06-19T00:07:25;981.26;;;30.88;27.54
45071;BME280;30836;48.906;9.140;2023-06-19T00:08:26;981.24;;;30.83;27.58
45071;BME280;30836;48.906;9.140;2023-06-19T00:09:26;981.24;;;30.81;27.57
45071;BME280;30836;48.906;9.140;2023-06-19T00:10:27;981.26;;;30.82;27.56
45071;BME280;30836;48.906;9.140;2023-06-19T00:11:27;981.26;;;30.85;27.60
45071;BME280;30836;48.906;9.140;2023-06-19T00:12:28;981.24;;;30.84;27.71
45071;BME280;30836;48.906;9.140;2023-06-19T00:13:28;981.24;;;30.81;27.71
45071;BME280;30836;48.906;9.140;2023-06-19T00:14:29;981.24;;;30.76;27.89
45071;BME280;30836;48.906;9.140;2023-06-19T00:15:29;981.22;;;30.73;27.92
45071;BME280;30836;48.906;9.140;2023-06-19T00:16:30;981.20;;;30.70;28.00
45071;BME280;30836;48.906;9.140;2023-06-19T00:17:31;981.18;;;30.68;28.01
45071;BME280;30836;48.906;9.140;2023-06-19T00:18:31;981.20;;;30.66;28.08
45071;BME280;30836;48.906;9.140;2023-06-19T00:19:32;981.20;;;30.64;28.07
45071;BME280;30836;48.906;9.140;2023-06-19T00:20:33;981.18;;;30.63;28.17
45071;BME280;30836;48.906;9.140;2023-06-19T00:21:33;981.20;;;30.63;28.24
45071;BME280;30836;48.906;9.140;2023-06-19T00:22:34;981.22;;;30.60;28.39
45071;BME280;30836;48.906;9.140;2023-06-19T00:23:34;981.22;;;30.56;28.60
45071;BME280;30836;48.906;9.140;2023-06-19T00:24:34;981.24;;;30.51;28.64
45071;BME280;30836;48.906;9.140;2023-06-19T00:25:35;981.26;;;30.49;28.64
45071;BME280;30836;48.906;9.140;2023-06-19T00:26:35;981.26;;;30.48;28.64
45071;BME280;30836;48.906;9.140;2023-06-19T00:27:36;981.28;;;30.46;28.74
45071;BME280;30836;48.906;9.140;2023-06-19T00:28:36;981.26;;;30.44;28.77
45071;BME280;30836;48.906;9.140;2023-06-19T00:29:37;981.30;;;30.43;28.80
45071;BME280;30836;48.906;9.140;2023-06-19T00:30:37;981.30;;;30.42;28.80
45071;BME280;30836;48.906;9.140;2023-06-19T00:31:38;981.26;;;30.42;28.89
45071;BME280;30836;48.906;9.140;2023-06-19T00:32:38;981.28;;;30.40;28.97
45071;BME280;30836;48.906;9.140;2023-06-19T00:33:39;981.28;;;30.40;29.04
45071;BME280;30836;48.906;9.140;2023-06-19T00:34:40;981.30;;;30.39;29.07
45071;BME280;30836;48.906;9.140;2023-06-19T00:35:40;981.30;;;30.40;29.11
45071;BME280;30836;48.906;9.140;2023-06-19T00:36:40;981.31;;;30.40;29.18
45071;BME280;30836;48.906;9.140;2023-06-19T00:37:41;981.30;;;30.39;29.30
45071;BME280;30836;48.906;9.140;2023-06-19T00:38:42;981.33;;;30.36;29.37
45071;BME280;30836;48.906;9.140;2023-06-19T00:39:42;981.31;;;30.30;29.55
45071;BME280;30836;48.906;9.140;2023-06-19T00:40:43;981.35;;;30.24;29.56
45071;BME280;30836;48.906;9.140;2023-06-19T00:41:43;981.33;;;30.22;29.60
45071;BME280;30836;48.906;9.140;2023-06-19T00:42:44;981.35;;;30.23;29.54
45071;BME280;30836;48.906;9.140;2023-06-19T00:43:45;981.35;;;30.26;29.53
45071;BME280;30836;48.906;9.140;2023-06-19T00:44:45;981.33;;;30.27;29.59
45071;BME280;30836;48.906;9.140;2023-06-19T00:45:46;981.39;;;30.27;29.59
45071;BME280;30836;48.906;9.140;2023-06-19T00:46:46;981.37;;;30.26;29.81
45071;BME280;30836;48.906;9.140;2023-06-19T00:47:47;981.41;;;30.18;29.99
45071;BME280;30836;48.906;9.140;2023-06-19T00:48:47;981.41;;;30.15;29.86
45071;BME280;30836;48.906;9.140;2023-06-19T00:49:48;981.41;;;30.25;29.65
45071;BME280;30836;48.906;9.140;2023-06-19T00:50:50;981.43;;;30.40;29.44
45071;BME280;30836;48.906;9.140;2023-06-19T00:51:51;981.41;;;30.55;29.26
45071;BME280;30836;48.906;9.140;2023-06-19T00:52:52;981.43;;;30.69;29.05
45071;BME280;30836;48.906;9.140;2023-06-19T00:53:52;981.45;;;30.81;29.05
45071;BME280;30836;48.906;9.140;2023-06-19T00:54:53;981.45;;;30.88;28.99
45071;BME280;30836;48.906;9.140;2023-06-19T00:55:53;981.47;;;30.94;28.95
45071;BME280;30836;48.906;9.140;2023-06-19T00:56:56;981.51;;;30.99;28.90
45071;BME280;30836;48.906;9.140;2023-06-19T00:57:56;981.53;;;31.03;28.96
45071;BME280;30836;48.906;9.140;2023-06-19T00:58:57;981.53;;;31.06;28.91
45071;BME280;30836;48.906;9.140;2023-06-19T00:59:58;981.51;;;31.09;28.99
45071;BME280;30836;48.906;9.140;2023-06-19T01:00:58;981.55;;;31.06;29.16
45071;BME280;30836;48.906;9.140;2023-06-19T01:01:59;981.59;;;30.95;29.49
45071;BME280;30836;48.906;9.140;2023-06-19T01:03:00;981.71;;;30.75;29.96
45071;BME280;30836;48.906;9.140;2023-06-19T01:04:00;981.77;;;30.45;30.79
45071;BME280;30836;48.906;9.140;2023-06-19T01:05:01;981.82;;;30.06;31.50
45071;BME280;30836;48.906;9.140;2023-06-19T01:06:02;981.98;;;29.72;31.77
45071;BME280;30836;48.906;9.140;2023-06-19T01:07:09;982.04;;;29.36;32.16
45071;BME280;30836;48.906;9.140;2023-06-19T01:09:28;982.16;;;28.54;33.54
45071;BME280;30836;48.906;9.140;2023-06-19T01:10:36;982.16;;;28.25;33.70
45071;BME280;30836;48.906;9.140;2023-06-19T01:11:42;982.14;;;28.08;33.70
45071;BME280;30836;48.906;9.140;2023-06-19T01:12:55;982.20;;;28.04;33.61
45071;BME280;30836;48.906;9.140;2023-06-19T01:13:58;982.24;;;28.00;34.12
45071;BME280;30836;48.906;9.140;2023-06-19T01:15:05;982.18;;;27.90;34.33
45071;BME280;30836;48.906;9.140;2023-06-19T01:16:07;982.18;;;27.86;34.37
45071;BME280;30836;48.906;9.140;2023-06-19T01:17:09;982.16;;;27.92;34.19
45071;BME280;30836;48.906;9.140;2023-06-19T01:18:10;982.18;;;27.97;34.38
45071;BME280;30836;48.906;9.140;2023-06-19T01:19:11;982.18;;;27.95;34.57
45071;BME280;30836;48.906;9.140;2023-06-19T01:20:20;982.20;;;27.97;34.41
45071;BME280;30836;48.906;9.140;2023-06-19T01:21:21;982.16;;;28.02;34.46
45071;BME280;30836;48.906;9.140;2023-06-19T01:22:31;982.22;;;27.98;34.79
45071;BME280;30836;48.906;9.140;2023-06-19T01:23:30;982.20;;;27.92;34.71
45071;BME280;30836;48.906;9.140;2023-06-19T01:24:30;982.22;;;27.95;34.55
45071;BME280;30836;48.906;9.140;2023-06-19T01:25:31;982.20;;;28.03;34.42
45071;BME280;30836;48.906;9.140;2023-06-19T01:26:31;982.24;;;28.02;34.86
45071;BME280;30836;48.906;9.140;2023-06-19T01:27:32;982.26;;;27.94;34.94
45071;BME280;30836;48.906;9.140;2023-06-19T01:28:34;982.28;;;27.92;35.04
45071;BME280;30836;48.906;9.140;2023-06-19T01:29:35;982.28;;;28.00;34.47
45071;BME280;30836;48.906;9.140;2023-06-19T01:30:36;982.28;;;28.18;34.38
45071;BME280;30836;48.906;9.140;2023-06-19T01:31:45;982.36;;;28.29;34.18
45071;BME280;30836;48.906;9.140;2023-06-19T01:33:52;982.34;;;28.46;34.25
45071;BME280;30836;48.906;9.140;2023-06-19T01:34:54;982.30;;;28.52;33.99
45071;BME280;30836;48.906;9.140;2023-06-19T01:35:57;982.30;;;28.55;34.15
45071;BME280;30836;48.906;9.140;2023-06-19T01:36:59;982.32;;;28.53;34.25
45071;BME280;30836;48.906;9.140;2023-06-19T01:38:01;982.34;;;28.57;33.94
45071;BME280;30836;48.906;9.140;2023-06-19T01:39:02;982.32;;;28.66;34.03
45071;BME280;30836;48.906;9.140;2023-06-19T01:40:05;982.32;;;28.71;34.01
45071;BME280;30836;48.906;9.140;2023-06-19T01:41:08;982.36;;;28.78;33.86
45071;BME280;30836;48.906;9.140;2023-06-19T01:42:10;982.34;;;28.85;33.96
45071;BME280;30836;48.906;9.140;2023-06-19T01:43:10;982.42;;;28.85;34.29
45071;BME280;30836;48.906;9.140;2023-06-19T01:44:11;982.42;;;28.83;34.20
45071;BME280;30836;48.906;9.140;2023-06-19T01:45:12;982.42;;;28.84;34.31
45071;BME280;30836;48.906;9.140;2023-06-19T01:46:13;982.46;;;28.81;34.72
45071;BME280;30836;48.906;9.140;2023-06-19T01:47:13;982.48;;;28.76;34.72
45071;BME280;30836;48.906;9.140;2023-06-19T01:48:14;982.50;;;28.76;34.87
45071;BME280;30836;48.906;9.140;2023-06-19T01:49:14;982.48;;;28.80;34.69
45071;BME280;30836;48.906;9.140;2023-06-19T01:50:15;982.44;;;28.91;34.47
45071;BME280;30836;48.906;9.140;2023-06-19T01:51:15;982.46;;;29.06;34.19
45071;BME280;30836;48.906;9.140;2023-06-19T01:52:16;982.46;;;29.15;34.58
45071;BME280;30836;48.906;9.140;2023-06-19T01:53:16;982.44;;;29.13;34.80
45071;BME280;30836;48.906;9.140;2023-06-19T01:54:17;982.48;;;29.08;35.04
45071;BME280;30836;48.906;9.140;2023-06-19T01:55:17;982.48;;;29.09;34.67
45071;BME280;30836;48.906;9.140;2023-06-19T01:56:18;982.48;;;29.14;34.89
45071;BME280;30836;48.906;9.140;2023-06-19T01:57:18;982.51;;;29.19;34.71
45071;BME280;30836;48.906;9.140;2023-06-19T01:58:19;982.55;;;29.28;34.53
45071;BME280;30836;48.906;9.140;2023-06-19T01:59:20;982.55;;;29.35;34.71
45071;BME280;30836;48.906;9.140;2023-06-19T02:00:20;982.55;;;29.40;34.52
45071;BME280;30836;48.906;9.140;2023-06-19T02:01:21;982.57;;;29.50;34.29
45071;BME280;30836;48.906;9.140;2023-06-19T02:02:21;982.57;;;29.61;34.16
45071;BME280;30836;48.906;9.140;2023-06-19T02:03:21;982.59;;;29.68;34.24
45071;BME280;30836;48.906;9.140;2023-06-19T02:04:22;982.61;;;29.67;34.44
45071;BME280;30836;48.906;9.140;2023-06-19T02:05:22;982.61;;;29.69;34.19
45071;BME280;30836;48.906;9.140;2023-06-19T02:06:23;982.61;;;29.76;34.17
45071;BME280;30836;48.906;9.140;2023-06-19T02:07:23;982.57;;;29.85;33.96
45071;BME280;30836;48.906;9.140;2023-06-19T02:08:24;982.57;;;29.95;33.92
45071;BME280;30836;48.906;9.140;2023-06-19T02:09:24;982.59;;;30.02;33.84
45071;BME280;30836;48.906;9.140;2023-06-19T02:10:24;982.55;;;30.07;33.84
45071;BME280;30836;48.906;9.140;2023-06-19T02:11:25;982.53;;;30.09;33.81
45071;BME280;30836;48.906;9.140;2023-06-19T02:12:25;982.55;;;30.13;33.72
45071;BME280;30836;48.906;9.140;2023-06-19T02:13:26;982.51;;;30.19;33.64
45071;BME280;30836;48.906;9.140;2023-06-19T02:14:26;982.50;;;30.26;33.49
45071;BME280;30836;48.906;9.140;2023-06-19T02:15:27;982.50;;;30.35;33.34
45071;BME280;30836;48.906;9.140;2023-06-19T02:16:27;982.50;;;30.40;33.48
45071;BME280;30836;48.906;9.140;2023-06-19T02:17:28;982.48;;;30.38;33.81
45071;BME280;30836;48.906;9.140;2023-06-19T02:18:28;982.48;;;30.36;33.71
45071;BME280;30836;48.906;9.140;2023-06-19T02:19:28;982.51;;;30.39;33.56
45071;BME280;30836;48.906;9.140;2023-06-19T02:20:29;982.48;;;30.43;33.57
45071;BME280;30836;48.906;9.140;2023-06-19T02:21:29;982.46;;;30.45;33.63
45071;BME280;30836;48.906;9.140;2023-06-19T02:22:30;982.46;;;30.46;33.51
45071;BME280;30836;48.906;9.140;2023-06-19T02:23:30;982.42;;;30.48;33.59
45071;BME280;30836;48.906;9.140;2023-06-19T02:24:30;982.42;;;30.49;33.52
45071;BME280;30836;48.906;9.140;2023-06-19T02:25:31;982.42;;;30.53;33.38
45071;BME280;30836;48.906;9.140;2023-06-19T02:26:31;982.42;;;30.59;33.30
45071;BME280;30836;48.906;9.140;2023-06-19T02:27:32;982.38;;;30.64;33.26
45071;BME280;30836;48.906;9.140;2023-06-19T02:28:33;982.36;;;30.67;33.30
45071;BME280;30836;48.906;9.140;2023-06-19T02:29:33;982.36;;;30.69;33.23
45071;BME280;30836;48.906;9.140;2023-06-19T02:30:33;982.34;;;30.71;33.33
45071;BME280;30836;48.906;9.140;2023-06-19T02:31:34;982.30;;;30.68;33.42
45071;BME280;30836;48.906;9.140;2023-06-19T02:32:34;982.32;;;30.65;33.44
45071;BME280;30836;48.906;9.140;2023-06-19T02:33:35;982.32;;;30.61;33.60
45071;BME280;30836;48.906;9.140;2023-06-19T02:34:35;982.28;;;30.56;33.66
45071;BME280;30836;48.906;9.140;2023-06-19T02:35:35;982.28;;;30.55;33.56
45071;BME280;30836;48.906;9.140;2023-06-19T02:36:36;982.26;;;30.57;33.53
45071;BME280;30836;48.906;9.140;2023-06-19T02:37:36;982.26;;;30.60;33.46
45071;BME280;30836;48.906;9.140;2023-06-19T02:38:37;982.22;;;30.63;33.47
45071;BME280;30836;48.906;9.140;2023-06-19T02:39:37;982.22;;;30.65;33.38
45071;BME280;30836;48.906;9.140;2023-06-19T02:41:48;982.26;;;30.69;33.36
45071;BME280;30836;48.906;9.140;2023-06-19T02:42:49;982.30;;;30.71;33.43
45071;BME280;30836;48.906;9.140;2023-06-19T02:43:49;982.26;;;30.69;33.54
45071;BME280;30836;48.906;9.140;2023-06-19T02:44:49;982.32;;;30.65;33.71
45071;BME280;30836;48.906;9.140;2023-06-19T02:45:50;982.32;;;30.61;33.71
45071;BME280;30836;48.906;9.140;2023-06-19T02:46:50;982.34;;;30.59;33.69
45071;BME280;30836;48.906;9.140;2023-06-19T02:47:51;982.34;;;30.60;33.70
45071;BME280;30836;48.906;9.140;2023-06-19T02:51:12;982.42;;;30.55;33.97
45071;BME280;30836;48.906;9.140;2023-06-19T02:52:13;982.42;;;30.54;33.95
45071;BME280;30836;48.906;9.140;2023-06-19T02:53:13;982.46;;;30.56;33.92
45071;BME280;30836;48.906;9.140;2023-06-19T02:54:13;982.46;;;30.57;33.91
45071;BME280;30836;48.906;9.140;2023-06-19T02:55:14;982.46;;;30.57;34.01
45071;BME280;30836;48.906;9.140;2023-06-19T02:56:14;982.48;;;30.58;33.93
45071;BME280;30836;48.906;9.140;2023-06-19T02:57:15;982.44;;;30.63;33.81
45071;BME280;30836;48.906;9.140;2023-06-19T02:58:15;982.44;;;30.69;33.80
45071;BME280;30836;48.906;9.140;2023-06-19T02:59:15;982.42;;;30.75;33.87
45071;BME280;30836;48.906;9.140;2023-06-19T03:00:16;982.46;;;30.80;33.87
45071;BME280;30836;48.906;9.140;2023-06-19T03:01:16;982.48;;;30.84;33.82
45071;BME280;30836;48.906;9.140;2023-06-19T03:02:17;982.50;;;30.88;33.80
45071;BME280;30836;48.906;9.140;2023-06-19T03:03:17;982.53;;;30.92;33.75
45071;BME280;30836;48.906;9.140;2023-06-19T03:04:18;982.53;;;30.95;33.63
45071;BME280;30836;48.906;9.140;2023-06-19T03:05:18;982.55;;;30.97;33.63
45071;BME280;30836;48.906;9.140;2023-06-19T03:06:19;982.55;;;30.99;33.62
45071;BME280;30836;48.906;9.140;2023-06-19T03:07:19;982.59;;;31.00;33.65
45071;BME280;30836;48.906;9.140;2023-06-19T03:08:19;982.55;;;30.99;33.76
45071;BME280;30836;48.906;9.140;2023-06-19T03:09:20;982.55;;;30.97;33.76
45071;BME280;30836;48.906;9.140;2023-06-19T03:10:20;982.57;;;30.96;33.81
45071;BME280;30836;48.906;9.140;2023-06-19T03:11:21;982.57;;;30.94;33.92
45071;BME280;30836;48.906;9.140;2023-06-19T03:12:21;982.61;;;30.93;33.94
45071;BME280;30836;48.906;9.140;2023-06-19T03:13:21;982.63;;;30.93;33.95
45071;BME280;30836;48.906;9.140;2023-06-19T03:14:22;982.65;;;30.93;33.78
45071;BME280;30836;48.906;9.140;2023-06-19T03:15:22;982.63;;;30.93;33.82
45071;BME280;30836;48.906;9.140;2023-06-19T03:16:23;982.63;;;30.91;33.93
45071;BME280;30836;48.906;9.140;2023-06-19T03:17:23;982.63;;;30.87;33.91
45071;BME280;30836;48.906;9.140;2023-06-19T03:18:23;982.61;;;30.84;33.89
45071;BME280;30836;48.906;9.140;2023-06-19T03:19:24;982.65;;;30.80;34.02
45071;BME280;30836;48.906;9.140;2023-06-19T03:20:24;982.67;;;30.75;33.93
45071;BME280;30836;48.906;9.140;2023-06-19T03:21:25;982.69;;;30.73;33.97
45071;BME280;30836;48.906;9.140;2023-06-19T03:22:25;982.71;;;30.72;33.95
45071;BME280;30836;48.906;9.140;2023-06-19T03:23:26;982.73;;;30.72;33.97
45071;BME280;30836;48.906;9.140;2023-06-19T03:24:26;982.75;;;30.72;34.06
45071;BME280;30836;48.906;9.140;2023-06-19T03:25:27;982.73;;;30.70;34.08
45071;BME280;30836;48.906;9.140;2023-06-19T03:26:27;982.75;;;30.69;34.10
45071;BME280;30836;48.906;9.140;2023-06-19T03:27:27;982.83;;;30.69;34.11
45071;BME280;30836;48.906;9.140;2023-06-19T03:28:28;982.81;;;30.70;34.20
45071;BME280;30836;48.906;9.140;2023-06-19T03:29:28;982.85;;;30.67;34.24
45071;BME280;30836;48.906;9.140;2023-06-19T03:30:29;982.87;;;30.61;34.11
45071;BME280;30836;48.906;9.140;2023-06-19T03:31:30;982.87;;;30.58;34.16
45071;BME280;30836;48.906;9.140;2023-06-19T03:32:30;982.87;;;30.58;34.20
45071;BME280;30836;48.906;9.140;2023-06-19T03:33:31;982.87;;;30.58;34.24
45071;BME280;30836;48.906;9.140;2023-06-19T03:34:31;982.87;;;30.60;34.19
45071;BME280;30836;48.906;9.140;2023-06-19T03:35:31;982.91;;;30.60;34.29
45071;BME280;30836;48.906;9.140;2023-06-19T03:36:32;982.91;;;30.61;34.28
45071;BME280;30836;48.906;9.140;2023-06-19T03:37:32;982.93;;;30.64;34.27
45071;BME280;30836;48.906;9.140;2023-06-19T03:38:33;982.91;;;30.67;34.41
45071;BME280;30836;48.906;9.140;2023-06-19T03:39:33;982.91;;;30.67;34.59
45071;BME280;30836;48.906;9.140;2023-06-19T03:40:34;982.91;;;30.68;34.51
45071;BME280;30836;48.906;9.140;2023-06-19T03:41:34;982.93;;;30.70;34.51
45071;BME280;30836;48.906;9.140;2023-06-19T03:42:35;982.95;;;30.72;34.47
45071;BME280;30836;48.906;9.140;2023-06-19T03:43:35;982.99;;;30.75;34.38
45071;BME280;30836;48.906;9.140;2023-06-19T03:44:35;982.99;;;30.76;34.50
45071;BME280;30836;48.906;9.140;2023-06-19T03:45:36;982.99;;;30.70;34.73
45071;BME280;30836;48.906;9.140;2023-06-19T03:46:36;982.97;;;30.60;34.93
45071;BME280;30836;48.906;9.140;2023-06-19T03:47:37;982.99;;;30.49;35.05
45071;BME280;30836;48.906;9.140;2023-06-19T03:48:37;983.01;;;30.38;35.26
45071;BME280;30836;48.906;9.140;2023-06-19T03:49:38;982.99;;;30.27;35.35
45071;BME280;30836;48.906;9.140;2023-06-19T03:50:38;982.97;;;30.17;35.43
45071;BME280;30836;48.906;9.140;2023-06-19T03:51:39;982.97;;;30.08;35.61
45071;BME280;30836;48.906;9.140;2023-06-19T03:52:39;982.97;;;30.01;35.63
45071;BME280;30836;48.906;9.140;2023-06-19T03:53:39;982.97;;;29.96;35.54
45071;BME280;30836;48.906;9.140;2023-06-19T03:54:40;983.01;;;29.93;35.61
45071;BME280;30836;48.906;9.140;2023-06-19T03:55:40;983.06;;;29.88;35.65
45071;BME280;30836;48.906;9.140;2023-06-19T03:56:41;983.03;;;29.84;35.74
45071;BME280;30836;48.906;9.140;2023-06-19T03:57:41;983.05;;;29.79;35.78
45071;BME280;30836;48.906;9.140;2023-06-19T03:58:42;983.05;;;29.74;35.83
45071;BME280;30836;48.906;9.140;2023-06-19T03:59:42;983.06;;;29.70;35.97
45071;BME280;30836;48.906;9.140;2023-06-19T04:00:42;983.06;;;29.68;35.98
45071;BME280;30836;48.906;9.140;2023-06-19T04:01:43;983.08;;;29.66;36.07
45071;BME280;30836;48.906;9.140;2023-06-19T04:02:43;983.10;;;29.63;36.21
45071;BME280;30836;48.906;9.140;2023-06-19T04:03:44;983.10;;;29.62;36.11
45071;BME280;30836;48.906;9.140;2023-06-19T04:04:45;983.08;;;29.63;36.00
45071;BME280;30836;48.906;9.140;2023-06-19T04:05:45;983.06;;;29.67;35.82
45071;BME280;30836;48.906;9.140;2023-06-19T04:06:46;983.08;;;29.71;35.80
45071;BME280;30836;48.906;9.140;2023-06-19T04:07:46;983.08;;;29.74;35.75
45071;BME280;30836;48.906;9.140;2023-06-19T04:08:47;983.08;;;29.75;35.64
45071;BME280;30836;48.906;9.140;2023-06-19T04:09:48;983.05;;;29.73;35.84
45071;BME280;30836;48.906;9.140;2023-06-19T04:10:48;983.06;;;29.69;35.81
45071;BME280;30836;48.906;9.140;2023-06-19T04:11:48;983.06;;;29.68;35.79
45071;BME280;30836;48.906;9.140;2023-06-19T04:12:49;983.06;;;29.68;35.81
45071;BME280;30836;48.906;9.140;2023-06-19T04:13:49;983.08;;;29.69;35.67
45071;BME280;30836;48.906;9.140;2023-06-19T04:14:50;983.10;;;29.69;35.74
45071;BME280;30836;48.906;9.140;2023-06-19T04:15:50;983.10;;;29.69;35.65
45071;BME280;30836;48.906;9.140;2023-06-19T04:16:51;983.14;;;29.69;35.65
45071;BME280;30836;48.906;9.140;2023-06-19T04:17:51;983.16;;;29.68;35.65
45071;BME280;30836;48.906;9.140;2023-06-19T04:18:51;983.20;;;29.65;35.77
45071;BME280;30836;48.906;9.140;2023-06-19T04:19:52;983.22;;;29.59;35.98
45071;BME280;30836;48.906;9.140;2023-06-19T04:20:52;983.24;;;29.52;36.06
45071;BME280;30836;48.906;9.140;2023-06-19T04:21:53;983.26;;;29.47;36.25
45071;BME280;30836;48.906;9.140;2023-06-19T04:22:53;983.24;;;29.43;36.46
45071;BME280;30836;48.906;9.140;2023-06-19T04:23:54;983.26;;;29.39;36.50
45071;BME280;30836;48.906;9.140;2023-06-19T04:24:54;983.24;;;29.37;36.50
45071;BME280;30836;48.906;9.140;2023-06-19T04:25:55;983.26;;;29.36;36.39
45071;BME280;30836;48.906;9.140;2023-06-19T04:26:55;983.28;;;29.38;36.34
45071;BME280;30836;48.906;9.140;2023-06-19T04:27:56;983.32;;;29.37;36.26
45071;BME280;30836;48.906;9.140;2023-06-19T04:28:56;983.32;;;29.28;36.45
45071;BME280;30836;48.906;9.140;2023-06-19T04:29:56;983.28;;;29.19;36.61
45071;BME280;30836;48.906;9.140;2023-06-19T04:30:57;983.32;;;29.04;37.04
45071;BME280;30836;48.906;9.140;2023-06-19T04:31:58;983.34;;;28.87;37.30
45071;BME280;30836;48.906;9.140;2023-06-19T04:32:59;983.34;;;28.76;37.33
45071;BME280;30836;48.906;9.140;2023-06-19T04:33:59;983.34;;;28.71;37.28
45071;BME280;30836;48.906;9.140;2023-06-19T04:35:00;983.36;;;28.66;37.55
45071;BME280;30836;48.906;9.140;2023-06-19T04:36:01;983.36;;;28.61;37.56
45071;BME280;30836;48.906;9.140;2023-06-19T04:37:01;983.34;;;28.58;37.69
45071;BME280;30836;48.906;9.140;2023-06-19T04:38:01;983.34;;;28.46;38.51
45071;BME280;30836;48.906;9.140;2023-06-19T04:39:02;983.34;;;28.31;38.46
45071;BME280;30836;48.906;9.140;2023-06-19T04:40:02;983.36;;;28.28;38.54
45071;BME280;30836;48.906;9.140;2023-06-19T04:41:03;983.38;;;28.30;38.32
45071;BME280;30836;48.906;9.140;2023-06-19T04:42:04;983.40;;;28.35;38.37
45071;BME280;30836;48.906;9.140;2023-06-19T04:43:04;983.38;;;28.33;38.73
45071;BME280;30836;48.906;9.140;2023-06-19T04:44:05;983.38;;;28.28;38.77
45071;BME280;30836;48.906;9.140;2023-06-19T04:45:05;983.40;;;28.30;38.66
45071;BME280;30836;48.906;9.140;2023-06-19T04:46:06;983.40;;;28.31;38.86
45071;BME280;30836;48.906;9.140;2023-06-19T04:47:07;983.42;;;28.23;39.31
45071;BME280;30836;48.906;9.140;2023-06-19T04:48:07;983.38;;;28.08;39.67
45071;BME280;30836;48.906;9.140;2023-06-19T04:49:08;983.36;;;28.01;39.49
45071;BME280;30836;48.906;9.140;2023-06-19T04:50:08;983.36;;;28.02;39.44
45071;BME280;30836;48.906;9.140;2023-06-19T04:51:09;983.38;;;28.07;39.25
45071;BME280;30836;48.906;9.140;2023-06-19T04:52:09;983.42;;;28.17;39.15
45071;BME280;30836;48.906;9.140;2023-06-19T04:53:09;983.40;;;28.22;39.38
45071;BME280;30836;48.906;9.140;2023-06-19T04:54:10;983.38;;;28.26;39.20
45071;BME280;30836;48.906;9.140;2023-06-19T04:55:10;983.40;;;28.28;39.34
45071;BME280;30836;48.906;9.140;2023-06-19T04:56:11;983.38;;;28.27;39.29
45071;BME280;30836;48.906;9.140;2023-06-19T04:57:11;983.38;;;28.27;39.38
45071;BME280;30836;48.906;9.140;2023-06-19T04:58:12;983.40;;;28.24;39.63
45071;BME280;30836;48.906;9.140;2023-06-19T04:59:12;983.40;;;28.24;39.40
45071;BME280;30836;48.906;9.140;2023-06-19T05:00:13;983.42;;;28.27;39.58
45071;BME280;30836;48.906;9.140;2023-06-19T05:01:13;983.42;;;28.24;39.77
45071;BME280;30836;48.906;9.140;2023-06-19T05:02:14;983.40;;;28.24;39.56
45071;BME280;30836;48.906;9.140;2023-06-19T05:03:15;983.44;;;28.33;39.31
45071;BME280;30836;48.906;9.140;2023-06-19T05:04:15;983.40;;;28.41;39.23
45071;BME280;30836;48.906;9.140;2023-06-19T05:05:16;983.42;;;28.45;39.38
45071;BME280;30836;48.906;9.140;2023-06-19T05:06:17;983.46;;;28.47;39.22
45071;BME280;30836;48.906;9.140;2023-06-19T05:07:18;983.44;;;28.52;39.23
45071;BME280;30836;48.906;9.140;2023-06-19T05:08:18;983.48;;;28.57;39.07
45071;BME280;30836;48.906;9.140;2023-06-19T05:09:18;983.50;;;28.63;38.93
45071;BME280;30836;48.906;9.140;2023-06-19T05:10:19;983.52;;;28.70;38.87
45071;BME280;30836;48.906;9.140;2023-06-19T05:11:19;983.52;;;28.69;39.28
45071;BME280;30836;48.906;9.140;2023-06-19T05:12:20;983.52;;;28.61;39.23
45071;BME280;30836;48.906;9.140;2023-06-19T05:13:20;983.52;;;28.59;39.29
45071;BME280;30836;48.906;9.140;2023-06-19T05:14:21;983.56;;;28.59;39.29
45071;BME280;30836;48.906;9.140;2023-06-19T05:15:21;983.57;;;28.61;39.23
45071;BME280;30836;48.906;9.140;2023-06-19T05:16:22;983.56;;;28.63;39.15
45071;BME280;30836;48.906;9.140;2023-06-19T05:17:22;983.56;;;28.66;39.15
45071;BME280;30836;48.906;9.140;2023-06-19T05:18:23;983.56;;;28.71;39.15
45071;BME280;30836;48.906;9.140;2023-06-19T05:19:23;983.63;;;28.74;39.10
45071;BME280;30836;48.906;9.140;2023-06-19T05:20:24;983.59;;;28.79;38.94
45071;BME280;30836;48.906;9.140;2023-06-19T05:21:24;983.61;;;28.87;38.66
45071;BME280;30836;48.906;9.140;2023-06-19T05:22:25;983.61;;;28.96;38.55
45071;BME280;30836;48.906;9.140;2023-06-19T05:23:25;983.61;;;29.05;38.38
45071;BME280;30836;48.906;9.140;2023-06-19T05:24:25;983.61;;;29.14;38.29
45071;BME280;30836;48.906;9.140;2023-06-19T05:25:26;983.61;;;29.23;38.19
45071;BME280;30836;48.906;9.140;2023-06-19T05:26:26;983.61;;;29.33;37.88
45071;BME280;30836;48.906;9.140;2023-06-19T05:27:27;983.61;;;29.46;37.65
45071;BME280;30836;48.906;9.140;2023-06-19T05:28:27;983.67;;;29.55;37.56
45071;BME280;30836;48.906;9.140;2023-06-19T05:29:27;983.67;;;29.63;37.46
45071;BME280;30836;48.906;9.140;2023-06-19T05:30:28;983.69;;;29.68;37.45
45071;BME280;30836;48.906;9.140;2023-06-19T05:31:28;983.71;;;29.71;37.40
45071;BME280;30836;48.906;9.140;2023-06-19T05:32:29;983.69;;;29.72;37.53
45071;BME280;30836;48.906;9.140;2023-06-19T05:33:29;983.65;;;29.72;37.48
45071;BME280;30836;48.906;9.140;2023-06-19T05:34:30;983.61;;;29.72;37.45
45071;BME280;30836;48.906;9.140;2023-06-19T05:35:30;983.65;;;29.71;37.46
45071;BME280;30836;48.906;9.140;2023-06-19T05:36:31;983.61;;;29.71;37.51